createdAt,value
2023-01-13T00:00:53.127Z,28.90
2023-01-13T00:03:56.431Z,27.60
2023-01-13T00:06:58.789Z,26.30
2023-01-13T00:10:01.154Z,24.70
2023-01-13T00:13:04.484Z,24.80
2023-01-13T00:16:08.709Z,25.05
2023-01-13T00:19:11.020Z,20.50
2023-01-13T00:22:13.345Z,21.93
2023-01-13T00:25:15.700Z,29.48
2023-01-13T00:28:18.099Z,22.35
2023-01-13T00:31:21.467Z,21.70
2023-01-13T00:34:24.738Z,24.17
2023-01-13T00:37:27.103Z,19.90
2023-01-13T00:40:29.385Z,21.90
2023-01-13T00:43:32.854Z,24.55
2023-01-13T00:46:35.284Z,21.92
2023-01-13T00:49:37.586Z,21.83
2023-01-13T00:52:42.029Z,23.10
2023-01-13T00:55:44.629Z,23.67
2023-01-13T00:58:47.958Z,29.38
2023-01-13T01:01:50.449Z,30.98
2023-01-13T01:04:52.920Z,40.23
2023-01-13T01:07:55.243Z,34.87
2023-01-13T01:11:08.952Z,24.60
2023-01-13T01:14:13.128Z,20.80
2023-01-13T01:17:15.382Z,25.55
2023-01-13T01:20:17.849Z,24.37
2023-01-13T01:23:20.119Z,24.40
2023-01-13T01:26:26.924Z,24.73
2023-01-13T01:29:29.290Z,26.35
2023-01-13T01:32:34.194Z,25.60
2023-01-13T01:35:40.052Z,21.60
2023-01-13T01:38:42.649Z,22.07
2023-01-13T01:42:04.913Z,28.27
2023-01-13T01:45:24.166Z,21.92
2023-01-13T01:48:27.671Z,23.35
2023-01-13T01:51:32.147Z,24.53
2023-01-13T01:54:53.178Z,21.73
2023-01-13T01:58:00.155Z,21.88
2023-01-13T02:01:04.452Z,22.05
2023-01-13T02:04:12.737Z,20.70
2023-01-13T02:07:15.143Z,22.53
2023-01-13T02:10:20.568Z,29.77
2023-01-13T02:13:23.134Z,30.17
2023-01-13T02:16:25.488Z,33.20
2023-01-13T02:20:09.585Z,24.08
2023-01-13T02:23:58.848Z,23.47
2023-01-13T02:27:10.315Z,22.60
2023-01-13T02:30:37.260Z,21.40
2023-01-13T02:33:46.783Z,24.02
2023-01-13T02:36:54.401Z,19.58
2023-01-13T02:40:24.854Z,23.70
2023-01-13T02:43:55.544Z,22.70
2023-01-13T02:47:01.626Z,18.65
2023-01-13T02:50:10.625Z,20.45
2023-01-13T02:53:34.648Z,21.05
2023-01-13T02:56:40.769Z,22.37
2023-01-13T02:59:43.286Z,18.57
2023-01-13T03:02:45.758Z,19.17
2023-01-13T03:05:51.998Z,21.55
2023-01-13T03:09:02.525Z,20.80
2023-01-13T03:12:19.498Z,22.50
2023-01-13T03:15:37.163Z,21.27
2023-01-13T03:18:48.515Z,21.92
2023-01-13T03:22:23.916Z,22.17
2023-01-13T03:25:57.196Z,20.58
2023-01-13T03:29:30.889Z,19.97
2023-01-13T03:32:34.640Z,22.67
2023-01-13T03:35:40.941Z,18.67
2023-01-13T03:38:51.112Z,21.52
2023-01-13T03:41:57.661Z,24.65
2023-01-13T03:45:10.344Z,21.13
2023-01-13T03:48:16.984Z,21.03
2023-01-13T03:51:19.803Z,20.45
2023-01-13T03:54:23.438Z,23.98
2023-01-13T03:57:30.067Z,21.58
2023-01-13T04:01:00.441Z,20.57
2023-01-13T04:04:08.530Z,18.87
2023-01-13T04:07:27.866Z,21.17
2023-01-13T04:10:45.591Z,19.55
2023-01-13T04:13:48.953Z,20.38
2023-01-13T04:16:51.198Z,18.83
2023-01-13T04:19:53.514Z,15.00
2023-01-13T04:22:55.973Z,18.73
2023-01-13T04:25:58.574Z,17.65
2023-01-13T04:29:00.918Z,17.45
2023-01-13T04:32:03.752Z,15.47
2023-01-13T04:35:08.520Z,19.93
2023-01-13T04:38:17.662Z,16.65
2023-01-13T04:41:20.067Z,14.35
2023-01-13T04:44:22.330Z,12.52
2023-01-13T04:47:24.658Z,16.47
2023-01-13T04:50:27.090Z,14.13
2023-01-13T04:53:29.398Z,15.90
2023-01-13T04:56:32.299Z,19.05
2023-01-13T04:59:34.747Z,15.63
2023-01-13T05:02:38.190Z,18.23
2023-01-13T05:05:40.590Z,15.53
2023-01-13T05:08:42.979Z,13.50
2023-01-13T05:12:03.996Z,14.55
2023-01-13T05:15:25.508Z,25.60
2023-01-13T05:18:30.121Z,22.90
2023-01-13T05:21:51.002Z,15.20
2023-01-13T05:25:12.144Z,15.52
2023-01-13T05:28:17.420Z,12.50
2023-01-13T05:31:20.461Z,15.02
2023-01-13T05:34:22.986Z,17.73
2023-01-13T05:37:29.715Z,14.03
2023-01-13T05:40:50.953Z,16.95
2023-01-13T05:43:53.400Z,16.60
2023-01-13T05:47:04.435Z,19.23
2023-01-13T05:50:10.483Z,20.13
2023-01-13T05:53:13.203Z,15.40
2023-01-13T05:57:31.283Z,16.90
2023-01-13T06:00:47.885Z,16.02
2023-01-13T06:03:54.713Z,19.30
2023-01-13T06:07:13.489Z,18.13
2023-01-13T06:10:16.322Z,14.97
2023-01-13T06:13:41.853Z,15.73
2023-01-13T06:16:45.713Z,18.00
2023-01-13T06:25:29.139Z,17.30
2023-01-13T06:33:44.612Z,19.05
2023-01-13T06:36:50.418Z,17.08
2023-01-13T06:40:11.063Z,17.98
2023-01-13T06:43:17.208Z,18.97
2023-01-13T06:46:22.803Z,17.47
2023-01-13T06:49:25.190Z,17.77
2023-01-13T06:52:33.358Z,18.63
2023-01-13T06:55:40.880Z,19.60
2023-01-13T06:58:43.518Z,21.80
2023-01-13T07:01:53.730Z,19.40
2023-01-13T07:05:31.153Z,18.92
2023-01-13T07:08:51.736Z,17.75
2023-01-13T07:16:49.925Z,19.50
2023-01-13T07:19:52.789Z,25.10
2023-01-13T07:22:56.557Z,16.27
2023-01-13T07:26:00.159Z,17.70
2023-01-13T07:29:05.810Z,17.25
2023-01-13T07:32:08.346Z,13.67
2023-01-13T07:35:10.732Z,16.17
2023-01-13T07:38:13.422Z,17.25
2023-01-13T07:41:34.687Z,21.45
2023-01-13T07:44:42.471Z,19.15
2023-01-13T07:47:44.902Z,19.60
2023-01-13T07:50:49.917Z,22.03
2023-01-13T07:54:11.937Z,17.25
2023-01-13T07:57:24.401Z,20.83
2023-01-13T08:00:27.027Z,20.42
2023-01-13T08:03:33.286Z,16.23
2023-01-13T08:06:47.663Z,14.23
2023-01-13T08:09:56.387Z,16.70
2023-01-13T08:13:17.707Z,15.75
2023-01-13T08:16:21.341Z,16.70
2023-01-13T08:19:31.695Z,18.67
2023-01-13T08:26:16.885Z,15.70
2023-01-13T08:29:21.131Z,16.55
2023-01-13T08:32:23.524Z,13.32
2023-01-13T08:35:32.652Z,12.63
2023-01-13T08:42:13.298Z,17.02
2023-01-13T08:45:28.536Z,16.35
2023-01-13T08:48:35.470Z,12.75
2023-01-13T08:51:44.499Z,15.27
2023-01-13T08:54:51.164Z,14.50
2023-01-13T08:58:00.585Z,15.70
2023-01-13T09:01:14.550Z,15.45
2023-01-13T09:04:19.883Z,14.18
2023-01-13T09:07:27.282Z,13.00
2023-01-13T09:10:31.814Z,11.57
2023-01-13T09:13:34.139Z,11.50
2023-01-13T09:16:36.357Z,9.77
2023-01-13T09:19:40.177Z,11.13
2023-01-13T09:22:52.550Z,13.93
2023-01-13T09:25:55.162Z,11.83
2023-01-13T09:28:57.429Z,14.93
2023-01-13T09:32:02.165Z,15.25
2023-01-13T09:35:15.699Z,18.10
2023-01-13T09:38:19.351Z,16.23
2023-01-13T09:41:48.299Z,12.60
2023-01-13T09:44:57.646Z,10.98
2023-01-13T09:52:26.959Z,14.13
2023-01-13T09:55:35.415Z,15.50
2023-01-13T09:58:56.194Z,12.77
2023-01-13T10:02:22.813Z,12.85
2023-01-13T10:05:39.363Z,13.73
2023-01-13T10:08:45.497Z,30.27
2023-01-13T10:12:19.431Z,16.00
2023-01-13T10:15:27.557Z,17.80
2023-01-13T10:19:10.269Z,18.73
2023-01-13T10:44:22.823Z,17.70
2023-01-13T10:47:36.480Z,16.55
2023-01-13T10:50:39.475Z,16.58
2023-01-13T10:53:46.984Z,21.93
2023-01-13T10:56:50.625Z,21.70
2023-01-13T10:59:55.004Z,20.80
2023-01-13T11:03:20.133Z,20.00
2023-01-13T11:06:48.280Z,20.75
2023-01-13T11:10:09.733Z,17.57
2023-01-13T11:18:41.757Z,18.33
2023-01-13T11:22:09.076Z,17.98
2023-01-13T11:25:20.687Z,19.85
2023-01-13T11:28:49.258Z,23.10
2023-01-13T11:31:56.466Z,18.27
2023-01-13T11:35:21.523Z,22.13
2023-01-13T11:38:56.675Z,20.85
2023-01-13T11:46:51.060Z,24.90
2023-01-13T11:49:53.601Z,25.23
2023-01-13T11:53:42.002Z,24.60
2023-01-13T11:57:25.567Z,26.08
2023-01-13T12:00:47.529Z,21.17
2023-01-13T12:04:13.695Z,25.20
2023-01-13T12:07:51.128Z,21.33
2023-01-13T12:11:28.484Z,27.42
2023-01-13T12:14:52.722Z,22.10
2023-01-13T12:18:13.995Z,23.05
2023-01-13T12:21:36.759Z,23.23
2023-01-13T12:25:01.609Z,25.90
2023-01-13T12:28:33.084Z,29.05
2023-01-13T12:31:41.979Z,29.75
2023-01-13T12:35:30.051Z,26.20
2023-01-13T12:43:56.811Z,24.63
2023-01-13T12:47:09.585Z,25.15
2023-01-13T12:50:27.101Z,27.70
2023-01-13T12:53:36.351Z,25.70
2023-01-13T12:56:42.534Z,30.00
2023-01-13T13:00:05.155Z,23.53
2023-01-13T13:03:19.310Z,23.25
2023-01-13T13:06:29.719Z,24.98
2023-01-13T13:09:38.647Z,21.65
2023-01-13T13:13:04.201Z,22.63
2023-01-13T13:16:44.018Z,29.87
2023-01-13T13:20:22.094Z,27.05
2023-01-13T13:23:54.595Z,25.52
2023-01-13T13:26:57.002Z,28.05
2023-01-13T13:30:27.889Z,30.87
2023-01-13T13:34:06.951Z,29.80
2023-01-13T13:38:03.221Z,25.75
2023-01-13T13:41:39.625Z,26.15
2023-01-13T13:45:25.839Z,30.27
2023-01-13T13:48:31.176Z,27.33
2023-01-13T13:52:02.567Z,26.53
2023-01-13T13:55:19.999Z,25.38
2023-01-13T13:58:23.582Z,27.27
2023-01-13T14:01:39.674Z,29.08
2023-01-13T14:05:13.034Z,24.67
2023-01-13T14:08:26.163Z,26.77
2023-01-13T14:11:33.084Z,25.13
2023-01-13T14:14:35.572Z,28.88
2023-01-13T14:17:38.999Z,28.65
2023-01-13T14:20:42.922Z,25.13
2023-01-13T14:24:15.800Z,27.93
2023-01-13T14:27:19.620Z,25.90
2023-01-13T14:30:23.520Z,26.73
2023-01-13T14:33:40.870Z,28.63
2023-01-13T14:36:44.635Z,32.43
2023-01-13T14:39:47.321Z,31.13
2023-01-13T14:43:04.595Z,27.95
2023-01-13T14:46:15.208Z,32.05
2023-01-13T14:50:01.160Z,36.17
2023-01-13T14:53:05.418Z,30.47
2023-01-13T14:56:56.118Z,34.57
2023-01-13T15:00:22.323Z,35.47
2023-01-13T15:03:24.663Z,30.20
2023-01-13T15:06:34.844Z,38.50
2023-01-13T15:09:41.752Z,41.20
2023-01-13T15:12:47.208Z,42.80
2023-01-13T15:15:56.695Z,34.92
2023-01-13T15:19:00.093Z,37.60
2023-01-13T15:22:09.864Z,34.45
2023-01-13T15:28:53.962Z,33.90
2023-01-13T15:31:56.526Z,36.25
2023-01-13T15:35:25.405Z,38.60
2023-01-13T15:42:34.928Z,30.53
2023-01-13T15:45:56.496Z,31.67
2023-01-13T15:49:02.087Z,30.92
2023-01-13T15:52:12.673Z,31.13
2023-01-13T15:55:15.271Z,26.17
2023-01-13T15:58:21.142Z,28.23
2023-01-13T16:01:26.117Z,30.67
2023-01-13T16:04:37.966Z,31.88
2023-01-13T16:07:43.544Z,31.02
2023-01-13T16:10:50.782Z,25.65
2023-01-13T16:14:00.213Z,26.90
2023-01-13T16:17:16.908Z,24.27
2023-01-13T16:20:19.571Z,30.40
2023-01-13T16:23:23.018Z,25.02
2023-01-13T16:26:27.988Z,25.40
2023-01-13T16:29:30.286Z,31.23
2023-01-13T16:32:32.674Z,24.70
2023-01-13T16:35:35.456Z,30.80
2023-01-13T16:38:57.833Z,25.52
2023-01-13T16:42:00.254Z,26.20
2023-01-13T16:45:08.384Z,28.70
2023-01-13T16:48:19.510Z,26.60
2023-01-13T16:51:22.877Z,31.17
2023-01-13T16:54:25.201Z,25.35
2023-01-13T16:57:27.537Z,28.90
2023-01-13T17:00:29.805Z,32.83
2023-01-13T17:03:36.042Z,26.67
2023-01-13T17:06:58.014Z,31.27
2023-01-13T17:10:00.338Z,35.47
2023-01-13T17:13:14.710Z,69.60
2023-01-13T17:16:22.698Z,38.83
2023-01-13T17:19:25.819Z,31.17
2023-01-13T17:22:28.174Z,30.02
2023-01-13T17:25:30.771Z,30.30
2023-01-13T17:28:33.241Z,34.60
2023-01-13T17:31:36.419Z,30.33
2023-01-13T17:34:40.231Z,29.57
2023-01-13T17:37:42.565Z,28.58
2023-01-13T17:40:45.841Z,26.73
2023-01-13T17:43:48.210Z,33.17
2023-01-13T17:46:50.740Z,34.50
2023-01-13T17:49:53.227Z,37.77
2023-01-13T17:52:55.588Z,39.47
2023-01-13T17:55:58.039Z,43.83
2023-01-13T17:59:00.311Z,55.58
2023-01-13T18:02:03.097Z,38.73
2023-01-13T18:05:05.784Z,34.43
2023-01-13T18:08:08.946Z,32.03
2023-01-13T18:11:11.456Z,30.52
2023-01-13T18:14:13.845Z,35.67
2023-01-13T18:17:17.041Z,29.10
2023-01-13T18:20:38.061Z,30.60
2023-01-13T18:23:58.971Z,30.60
2023-01-13T18:27:23.028Z,34.40
2023-01-13T18:30:25.691Z,27.50
2023-01-13T18:33:28.027Z,30.90
2023-01-13T18:36:30.344Z,29.63
2023-01-13T18:39:32.882Z,29.92
2023-01-13T18:42:51.515Z,29.73
2023-01-13T18:45:53.987Z,30.48
2023-01-13T18:48:56.412Z,33.03
2023-01-13T18:51:58.789Z,31.97
2023-01-13T18:55:01.119Z,33.17
2023-01-13T18:58:03.799Z,33.97
2023-01-13T19:01:06.945Z,29.85
2023-01-13T19:04:15.827Z,36.20
2023-01-13T19:07:23.618Z,33.40
2023-01-13T19:10:28.036Z,34.92
2023-01-13T19:13:30.609Z,27.15
2023-01-13T19:16:32.902Z,33.72
2023-01-13T19:19:43.898Z,29.93
2023-01-13T19:22:53.785Z,31.50
2023-01-13T19:26:08.872Z,31.80
2023-01-13T19:29:11.278Z,31.23
2023-01-13T19:32:13.830Z,32.45
2023-01-13T19:35:18.164Z,38.03
2023-01-13T19:38:20.836Z,40.70
2023-01-13T19:41:41.693Z,39.95
2023-01-13T19:45:02.582Z,33.22
2023-01-13T19:48:07.421Z,39.50
2023-01-13T19:51:10.575Z,30.77
2023-01-13T19:54:12.954Z,30.37
2023-01-13T19:57:15.755Z,31.38
2023-01-13T20:00:20.827Z,32.30
2023-01-13T20:03:25.955Z,28.13
2023-01-13T20:06:28.306Z,29.53
2023-01-13T20:09:31.171Z,33.67
2023-01-13T20:12:33.618Z,28.45
2023-01-13T20:15:38.056Z,32.35
2023-01-13T20:18:40.571Z,33.03
2023-01-13T20:21:43.257Z,29.67
2023-01-13T20:24:45.626Z,28.73
2023-01-13T20:27:48.316Z,34.95
2023-01-13T20:30:50.880Z,32.60
2023-01-13T20:33:53.248Z,32.75
2023-01-13T20:36:55.615Z,38.87
2023-01-13T20:40:01.490Z,36.13
2023-01-13T20:43:04.318Z,36.78
2023-01-13T20:46:06.595Z,32.00
2023-01-13T20:49:12.480Z,38.40
2023-01-13T20:52:14.752Z,35.83
2023-01-13T20:55:17.115Z,35.07
2023-01-13T20:58:19.543Z,40.33
2023-01-13T21:01:22.340Z,41.40
2023-01-13T21:04:24.943Z,38.90
2023-01-13T21:07:28.410Z,41.43
2023-01-13T21:10:30.759Z,38.27
2023-01-13T21:13:51.604Z,41.75
2023-01-13T21:16:53.902Z,36.30
2023-01-13T21:19:56.564Z,41.70
2023-01-13T21:22:59.619Z,44.87
2023-01-13T21:26:01.974Z,42.30
2023-01-13T21:29:04.511Z,43.30
2023-01-13T21:32:06.921Z,37.30
2023-01-13T21:35:09.543Z,42.03
2023-01-13T21:38:12.254Z,41.60
2023-01-13T21:41:15.153Z,40.67
2023-01-13T21:44:38.555Z,38.85
2023-01-13T21:47:49.848Z,39.67
2023-01-13T21:50:52.251Z,37.90
2023-01-13T21:53:55.296Z,37.63
2023-01-13T21:56:57.610Z,38.03
2023-01-13T21:59:59.985Z,36.28
2023-01-13T22:03:04.402Z,34.75
2023-01-13T22:06:06.903Z,35.90
2023-01-13T22:09:09.144Z,37.67
2023-01-13T22:12:11.558Z,33.20
2023-01-13T22:15:15.679Z,33.53
2023-01-13T22:18:20.993Z,40.83
2023-01-13T22:21:23.299Z,41.00
2023-01-13T22:24:25.766Z,39.73
2023-01-13T22:27:29.216Z,35.20
2023-01-13T22:30:32.710Z,34.58
2023-01-13T22:33:35.074Z,38.92
2023-01-13T22:36:37.471Z,38.80
2023-01-13T22:39:39.795Z,35.77
2023-01-13T22:42:42.995Z,35.77
2023-01-13T22:45:45.427Z,43.65
2023-01-13T22:48:48.472Z,36.47
2023-01-13T22:51:50.936Z,36.75
2023-01-13T22:54:53.269Z,37.97
2023-01-13T22:57:55.587Z,39.57
2023-01-13T23:01:08.447Z,34.78
2023-01-13T23:04:13.287Z,38.17
2023-01-13T23:07:15.670Z,42.38
2023-01-13T23:10:18.161Z,42.87
2023-01-13T23:13:20.446Z,35.63
2023-01-13T23:16:22.937Z,42.78
2023-01-13T23:19:25.299Z,38.78
2023-01-13T23:22:28.013Z,39.38
2023-01-13T23:25:30.257Z,41.67
2023-01-13T23:28:33.470Z,43.77
2023-01-13T23:31:35.914Z,37.00
2023-01-13T23:34:38.849Z,41.35
2023-01-13T23:37:42.032Z,38.05
2023-01-13T23:40:45.421Z,40.40
2023-01-13T23:43:52.690Z,37.23
2023-01-13T23:46:55.041Z,42.10
2023-01-13T23:49:57.978Z,44.90
2023-01-13T23:53:00.303Z,48.53
2023-01-13T23:56:04.685Z,44.47
2023-01-13T23:59:08.076Z,39.77
